sensor_id;sensor_type;location;lat;lon;timestamp;P1;durP1;ratioP1;P2;durP2;ratioP2
66095;SDS011;53861;53.422;14.530;2023-05-18T00:01:00;12.35;;;2.50;;
66095;SDS011;53861;53.422;14.530;2023-05-18T00:03:35;9.25;;;1.88;;
66095;SDS011;53861;53.422;14.530;2023-05-18T00:06:20;13.70;;;2.15;;
66095;SDS011;53861;53.422;14.530;2023-05-18T00:08:50;10.52;;;1.92;;
66095;SDS011;53861;53.422;14.530;2023-05-18T00:11:23;6.75;;;1.88;;
66095;SDS011;53861;53.422;14.530;2023-05-18T00:14:04;8.43;;;2.10;;
66095;SDS011;53861;53.422;14.530;2023-05-18T00:16:33;12.60;;;2.13;;
66095;SDS011;53861;53.422;14.530;2023-05-18T00:19:04;12.00;;;2.15;;
66095;SDS011;53861;53.422;14.530;2023-05-18T00:21:34;7.18;;;1.80;;
66095;SDS011;53861;53.422;14.530;2023-05-18T00:24:23;6.47;;;1.85;;
66095;SDS011;53861;53.422;14.530;2023-05-18T00:26:53;9.75;;;2.28;;
66095;SDS011;53861;53.422;14.530;2023-05-18T00:29:21;11.73;;;2.20;;
66095;SDS011;53861;53.422;14.530;2023-05-18T00:31:49;10.07;;;2.60;;
66095;SDS011;53861;53.422;14.530;2023-05-18T00:34:16;6.93;;;1.85;;
66095;SDS011;53861;53.422;14.530;2023-05-18T00:36:44;10.77;;;2.03;;
66095;SDS011;53861;53.422;14.530;2023-05-18T00:39:14;7.03;;;1.80;;
66095;SDS011;53861;53.422;14.530;2023-05-18T00:41:58;9.48;;;2.10;;
66095;SDS011;53861;53.422;14.530;2023-05-18T00:44:28;9.38;;;1.83;;
66095;SDS011;53861;53.422;14.530;2023-05-18T00:46:56;9.30;;;2.10;;
66095;SDS011;53861;53.422;14.530;2023-05-18T00:49:33;7.57;;;1.80;;
66095;SDS011;53861;53.422;14.530;2023-05-18T00:52:04;10.02;;;2.13;;
66095;SDS011;53861;53.422;14.530;2023-05-18T00:54:56;11.35;;;2.00;;
66095;SDS011;53861;53.422;14.530;2023-05-18T00:57:31;5.82;;;2.20;;
66095;SDS011;53861;53.422;14.530;2023-05-18T01:00:01;7.47;;;1.80;;
66095;SDS011;53861;53.422;14.530;2023-05-18T01:02:35;8.73;;;1.90;;
66095;SDS011;53861;53.422;14.530;2023-05-18T01:05:07;9.85;;;2.15;;
66095;SDS011;53861;53.422;14.530;2023-05-18T01:07:36;9.48;;;2.00;;
66095;SDS011;53861;53.422;14.530;2023-05-18T01:10:07;9.82;;;2.33;;
66095;SDS011;53861;53.422;14.530;2023-05-18T01:12:39;9.02;;;2.63;;
66095;SDS011;53861;53.422;14.530;2023-05-18T01:15:12;9.88;;;2.53;;
66095;SDS011;53861;53.422;14.530;2023-05-18T01:17:49;14.48;;;2.60;;
66095;SDS011;53861;53.422;14.530;2023-05-18T01:20:28;7.53;;;2.13;;
66095;SDS011;53861;53.422;14.530;2023-05-18T01:23:11;10.52;;;2.63;;
66095;SDS011;53861;53.422;14.530;2023-05-18T01:29:03;9.70;;;2.28;;
66095;SDS011;53861;53.422;14.530;2023-05-18T01:31:33;8.93;;;2.28;;
66095;SDS011;53861;53.422;14.530;2023-05-18T01:34:01;7.75;;;2.00;;
66095;SDS011;53861;53.422;14.530;2023-05-18T01:36:32;7.68;;;1.98;;
66095;SDS011;53861;53.422;14.530;2023-05-18T01:39:00;7.85;;;2.28;;
66095;SDS011;53861;53.422;14.530;2023-05-18T01:41:31;7.03;;;2.05;;
66095;SDS011;53861;53.422;14.530;2023-05-18T01:44:14;8.43;;;2.10;;
66095;SDS011;53861;53.422;14.530;2023-05-18T01:46:45;9.00;;;2.05;;
66095;SDS011;53861;53.422;14.530;2023-05-18T01:49:23;13.80;;;2.22;;
66095;SDS011;53861;53.422;14.530;2023-05-18T01:51:55;8.32;;;2.50;;
66095;SDS011;53861;53.422;14.530;2023-05-18T01:54:29;13.18;;;2.50;;
66095;SDS011;53861;53.422;14.530;2023-05-18T01:57:08;10.13;;;2.60;;
66095;SDS011;53861;53.422;14.530;2023-05-18T01:59:38;8.07;;;2.35;;
66095;SDS011;53861;53.422;14.530;2023-05-18T02:02:07;13.48;;;2.50;;
66095;SDS011;53861;53.422;14.530;2023-05-18T02:04:37;8.95;;;2.55;;
66095;SDS011;53861;53.422;14.530;2023-05-18T02:07:07;12.30;;;2.65;;
66095;SDS011;53861;53.422;14.530;2023-05-18T02:09:50;11.45;;;2.55;;
66095;SDS011;53861;53.422;14.530;2023-05-18T02:12:34;11.15;;;2.15;;
66095;SDS011;53861;53.422;14.530;2023-05-18T02:15:04;10.55;;;2.72;;
66095;SDS011;53861;53.422;14.530;2023-05-18T02:17:48;10.70;;;2.70;;
66095;SDS011;53861;53.422;14.530;2023-05-18T02:20:22;11.43;;;2.33;;
66095;SDS011;53861;53.422;14.530;2023-05-18T02:22:57;8.52;;;2.30;;
66095;SDS011;53861;53.422;14.530;2023-05-18T02:25:25;9.35;;;2.45;;
66095;SDS011;53861;53.422;14.530;2023-05-18T02:27:58;8.32;;;2.35;;
66095;SDS011;53861;53.422;14.530;2023-05-18T02:30:29;8.27;;;2.28;;
66095;SDS011;53861;53.422;14.530;2023-05-18T02:33:10;7.15;;;2.45;;
66095;SDS011;53861;53.422;14.530;2023-05-18T02:35:40;8.38;;;2.40;;
66095;SDS011;53861;53.422;14.530;2023-05-18T02:38:17;8.70;;;2.35;;
66095;SDS011;53861;53.422;14.530;2023-05-18T02:40:44;9.63;;;2.60;;
66095;SDS011;53861;53.422;14.530;2023-05-18T02:43:30;8.60;;;2.15;;
66095;SDS011;53861;53.422;14.530;2023-05-18T02:45:57;6.90;;;2.13;;
66095;SDS011;53861;53.422;14.530;2023-05-18T02:48:25;10.40;;;2.53;;
66095;SDS011;53861;53.422;14.530;2023-05-18T02:50:53;15.93;;;2.55;;
66095;SDS011;53861;53.422;14.530;2023-05-18T02:53:21;10.38;;;2.45;;
66095;SDS011;53861;53.422;14.530;2023-05-18T02:55:58;9.05;;;2.28;;
66095;SDS011;53861;53.422;14.530;2023-05-18T02:58:52;8.82;;;2.17;;
66095;SDS011;53861;53.422;14.530;2023-05-18T03:01:25;13.25;;;3.10;;
66095;SDS011;53861;53.422;14.530;2023-05-18T03:03:57;9.32;;;2.20;;
66095;SDS011;53861;53.422;14.530;2023-05-18T03:06:28;12.98;;;2.70;;
66095;SDS011;53861;53.422;14.530;2023-05-18T03:08:56;9.80;;;2.42;;
66095;SDS011;53861;53.422;14.530;2023-05-18T03:11:24;8.60;;;2.20;;
66095;SDS011;53861;53.422;14.530;2023-05-18T03:14:05;10.35;;;2.20;;
66095;SDS011;53861;53.422;14.530;2023-05-18T03:16:36;10.43;;;2.55;;
66095;SDS011;53861;53.422;14.530;2023-05-18T03:19:04;9.75;;;2.50;;
66095;SDS011;53861;53.422;14.530;2023-05-18T03:21:35;8.45;;;2.20;;
66095;SDS011;53861;53.422;14.530;2023-05-18T03:24:05;10.75;;;2.70;;
66095;SDS011;53861;53.422;14.530;2023-05-18T03:26:41;11.20;;;2.92;;
66095;SDS011;53861;53.422;14.530;2023-05-18T03:29:13;11.38;;;3.28;;
66095;SDS011;53861;53.422;14.530;2023-05-18T03:31:42;11.82;;;2.50;;
66095;SDS011;53861;53.422;14.530;2023-05-18T03:34:12;10.30;;;2.38;;
66095;SDS011;53861;53.422;14.530;2023-05-18T03:36:46;8.98;;;2.33;;
66095;SDS011;53861;53.422;14.530;2023-05-18T03:39:13;8.50;;;2.22;;
66095;SDS011;53861;53.422;14.530;2023-05-18T03:41:41;11.48;;;2.60;;
66095;SDS011;53861;53.422;14.530;2023-05-18T03:44:09;13.02;;;2.53;;
66095;SDS011;53861;53.422;14.530;2023-05-18T03:46:38;7.38;;;2.45;;
66095;SDS011;53861;53.422;14.530;2023-05-18T03:49:12;9.93;;;2.38;;
66095;SDS011;53861;53.422;14.530;2023-05-18T03:51:44;15.48;;;3.30;;
66095;SDS011;53861;53.422;14.530;2023-05-18T03:54:12;9.88;;;2.60;;
66095;SDS011;53861;53.422;14.530;2023-05-18T03:56:40;10.40;;;2.53;;
66095;SDS011;53861;53.422;14.530;2023-05-18T03:59:08;9.18;;;2.28;;
66095;SDS011;53861;53.422;14.530;2023-05-18T04:01:38;15.70;;;2.60;;
66095;SDS011;53861;53.422;14.530;2023-05-18T04:04:07;12.73;;;2.60;;
66095;SDS011;53861;53.422;14.530;2023-05-18T04:06:42;6.25;;;2.42;;
66095;SDS011;53861;53.422;14.530;2023-05-18T04:09:16;11.85;;;2.33;;
66095;SDS011;53861;53.422;14.530;2023-05-18T04:11:48;11.23;;;2.90;;
66095;SDS011;53861;53.422;14.530;2023-05-18T04:14:16;11.38;;;2.22;;
66095;SDS011;53861;53.422;14.530;2023-05-18T04:16:50;8.10;;;3.10;;
66095;SDS011;53861;53.422;14.530;2023-05-18T04:19:18;9.48;;;2.20;;
66095;SDS011;53861;53.422;14.530;2023-05-18T04:21:47;19.98;;;2.80;;
66095;SDS011;53861;53.422;14.530;2023-05-18T04:24:17;9.75;;;2.55;;
66095;SDS011;53861;53.422;14.530;2023-05-18T04:26:46;14.35;;;2.65;;
66095;SDS011;53861;53.422;14.530;2023-05-18T04:29:14;9.20;;;3.00;;
66095;SDS011;53861;53.422;14.530;2023-05-18T04:31:46;20.17;;;6.63;;
66095;SDS011;53861;53.422;14.530;2023-05-18T04:34:17;12.90;;;3.00;;
66095;SDS011;53861;53.422;14.530;2023-05-18T04:36:48;12.48;;;3.15;;
66095;SDS011;53861;53.422;14.530;2023-05-18T04:39:19;12.23;;;3.00;;
66095;SDS011;53861;53.422;14.530;2023-05-18T04:41:48;17.92;;;2.90;;
66095;SDS011;53861;53.422;14.530;2023-05-18T04:44:22;17.15;;;3.03;;
66095;SDS011;53861;53.422;14.530;2023-05-18T04:46:55;9.00;;;2.53;;
66095;SDS011;53861;53.422;14.530;2023-05-18T04:49:26;9.32;;;2.22;;
66095;SDS011;53861;53.422;14.530;2023-05-18T04:51:57;11.82;;;2.70;;
66095;SDS011;53861;53.422;14.530;2023-05-18T04:54:26;12.40;;;2.80;;
66095;SDS011;53861;53.422;14.530;2023-05-18T04:56:56;11.65;;;3.22;;
66095;SDS011;53861;53.422;14.530;2023-05-18T04:59:27;10.20;;;2.85;;
66095;SDS011;53861;53.422;14.530;2023-05-18T05:02:18;12.48;;;2.85;;
66095;SDS011;53861;53.422;14.530;2023-05-18T05:04:50;14.85;;;3.13;;
66095;SDS011;53861;53.422;14.530;2023-05-18T05:07:18;13.38;;;3.20;;
66095;SDS011;53861;53.422;14.530;2023-05-18T05:09:50;10.40;;;3.10;;
66095;SDS011;53861;53.422;14.530;2023-05-18T05:12:18;13.95;;;3.33;;
66095;SDS011;53861;53.422;14.530;2023-05-18T05:14:50;10.07;;;2.80;;
66095;SDS011;53861;53.422;14.530;2023-05-18T05:17:21;16.30;;;4.03;;
66095;SDS011;53861;53.422;14.530;2023-05-18T05:19:59;12.35;;;3.10;;
66095;SDS011;53861;53.422;14.530;2023-05-18T05:22:27;18.67;;;3.67;;
66095;SDS011;53861;53.422;14.530;2023-05-18T05:24:58;11.13;;;2.95;;
66095;SDS011;53861;53.422;14.530;2023-05-18T05:27:26;15.65;;;3.58;;
66095;SDS011;53861;53.422;14.530;2023-05-18T05:30:08;13.93;;;3.30;;
66095;SDS011;53861;53.422;14.530;2023-05-18T05:32:37;16.42;;;3.47;;
66095;SDS011;53861;53.422;14.530;2023-05-18T05:35:17;11.45;;;3.05;;
66095;SDS011;53861;53.422;14.530;2023-05-18T05:37:45;11.70;;;3.08;;
66095;SDS011;53861;53.422;14.530;2023-05-18T05:40:13;10.75;;;3.03;;
66095;SDS011;53861;53.422;14.530;2023-05-18T05:42:46;18.98;;;3.90;;
66095;SDS011;53861;53.422;14.530;2023-05-18T05:45:14;15.98;;;3.80;;
66095;SDS011;53861;53.422;14.530;2023-05-18T05:47:48;12.27;;;2.90;;
66095;SDS011;53861;53.422;14.530;2023-05-18T05:50:35;16.23;;;3.53;;
66095;SDS011;53861;53.422;14.530;2023-05-18T05:53:08;9.45;;;2.78;;
66095;SDS011;53861;53.422;14.530;2023-05-18T05:55:35;8.90;;;3.47;;
66095;SDS011;53861;53.422;14.530;2023-05-18T05:58:07;12.05;;;3.13;;
66095;SDS011;53861;53.422;14.530;2023-05-18T06:00:36;14.05;;;3.15;;
66095;SDS011;53861;53.422;14.530;2023-05-18T06:03:04;24.02;;;3.63;;
66095;SDS011;53861;53.422;14.530;2023-05-18T06:05:33;14.02;;;2.90;;
66095;SDS011;53861;53.422;14.530;2023-05-18T06:08:02;12.77;;;3.03;;
66095;SDS011;53861;53.422;14.530;2023-05-18T06:10:34;18.42;;;3.15;;
66095;SDS011;53861;53.422;14.530;2023-05-18T06:13:04;17.35;;;3.70;;
66095;SDS011;53861;53.422;14.530;2023-05-18T06:15:32;15.10;;;2.90;;
66095;SDS011;53861;53.422;14.530;2023-05-18T06:18:02;15.10;;;3.20;;
66095;SDS011;53861;53.422;14.530;2023-05-18T06:20:42;8.80;;;2.88;;
66095;SDS011;53861;53.422;14.530;2023-05-18T06:23:13;11.55;;;3.15;;
66095;SDS011;53861;53.422;14.530;2023-05-18T06:25:51;16.15;;;3.30;;
66095;SDS011;53861;53.422;14.530;2023-05-18T06:28:42;14.02;;;3.90;;
66095;SDS011;53861;53.422;14.530;2023-05-18T06:31:21;12.20;;;3.20;;
66095;SDS011;53861;53.422;14.530;2023-05-18T06:33:58;13.77;;;3.53;;
66095;SDS011;53861;53.422;14.530;2023-05-18T06:36:29;15.90;;;4.13;;
66095;SDS011;53861;53.422;14.530;2023-05-18T06:39:01;23.65;;;4.10;;
66095;SDS011;53861;53.422;14.530;2023-05-18T06:41:29;14.38;;;3.40;;
66095;SDS011;53861;53.422;14.530;2023-05-18T06:43:57;17.85;;;3.40;;
66095;SDS011;53861;53.422;14.530;2023-05-18T06:46:29;15.95;;;2.92;;
66095;SDS011;53861;53.422;14.530;2023-05-18T06:48:59;14.48;;;3.00;;
66095;SDS011;53861;53.422;14.530;2023-05-18T06:51:27;10.82;;;3.13;;
66095;SDS011;53861;53.422;14.530;2023-05-18T06:54:01;16.92;;;2.92;;
66095;SDS011;53861;53.422;14.530;2023-05-18T06:56:32;14.23;;;3.30;;
66095;SDS011;53861;53.422;14.530;2023-05-18T06:59:02;33.97;;;3.55;;
66095;SDS011;53861;53.422;14.530;2023-05-18T07:01:30;19.10;;;4.13;;
66095;SDS011;53861;53.422;14.530;2023-05-18T07:03:58;13.60;;;3.55;;
66095;SDS011;53861;53.422;14.530;2023-05-18T07:06:27;11.98;;;2.65;;
66095;SDS011;53861;53.422;14.530;2023-05-18T07:08:55;14.95;;;2.20;;
66095;SDS011;53861;53.422;14.530;2023-05-18T07:11:24;11.50;;;2.20;;
66095;SDS011;53861;53.422;14.530;2023-05-18T07:13:52;7.00;;;2.10;;
66095;SDS011;53861;53.422;14.530;2023-05-18T07:16:20;16.80;;;4.78;;
66095;SDS011;53861;53.422;14.530;2023-05-18T07:18:48;11.57;;;2.00;;
66095;SDS011;53861;53.422;14.530;2023-05-18T07:21:25;15.43;;;3.35;;
66095;SDS011;53861;53.422;14.530;2023-05-18T07:23:54;23.83;;;6.05;;
66095;SDS011;53861;53.422;14.530;2023-05-18T07:26:21;20.25;;;6.35;;
66095;SDS011;53861;53.422;14.530;2023-05-18T07:28:50;23.23;;;3.20;;
66095;SDS011;53861;53.422;14.530;2023-05-18T07:31:17;12.75;;;2.78;;
66095;SDS011;53861;53.422;14.530;2023-05-18T07:33:46;12.45;;;3.00;;
66095;SDS011;53861;53.422;14.530;2023-05-18T07:36:13;19.30;;;3.17;;
66095;SDS011;53861;53.422;14.530;2023-05-18T07:38:41;21.48;;;3.85;;
66095;SDS011;53861;53.422;14.530;2023-05-18T07:41:08;15.35;;;2.78;;
66095;SDS011;53861;53.422;14.530;2023-05-18T07:43:36;9.65;;;2.35;;
66095;SDS011;53861;53.422;14.530;2023-05-18T07:46:05;13.43;;;2.63;;
66095;SDS011;53861;53.422;14.530;2023-05-18T07:48:32;14.05;;;2.67;;
66095;SDS011;53861;53.422;14.530;2023-05-18T07:50:59;25.42;;;3.30;;
66095;SDS011;53861;53.422;14.530;2023-05-18T07:53:27;25.63;;;4.72;;
66095;SDS011;53861;53.422;14.530;2023-05-18T07:55:54;14.60;;;3.50;;
66095;SDS011;53861;53.422;14.530;2023-05-18T07:58:22;17.02;;;2.65;;
66095;SDS011;53861;53.422;14.530;2023-05-18T08:00:49;13.43;;;2.70;;
66095;SDS011;53861;53.422;14.530;2023-05-18T08:03:18;12.30;;;2.47;;
66095;SDS011;53861;53.422;14.530;2023-05-18T08:05:45;36.00;;;4.70;;
66095;SDS011;53861;53.422;14.530;2023-05-18T08:08:12;14.32;;;3.55;;
66095;SDS011;53861;53.422;14.530;2023-05-18T08:10:40;13.00;;;2.40;;
66095;SDS011;53861;53.422;14.530;2023-05-18T08:13:08;14.07;;;3.40;;
66095;SDS011;53861;53.422;14.530;2023-05-18T08:15:35;12.07;;;3.55;;
66095;SDS011;53861;53.422;14.530;2023-05-18T08:18:03;15.18;;;3.63;;
66095;SDS011;53861;53.422;14.530;2023-05-18T08:20:32;13.43;;;3.60;;
66095;SDS011;53861;53.422;14.530;2023-05-18T08:22:59;20.55;;;6.13;;
66095;SDS011;53861;53.422;14.530;2023-05-18T08:25:26;13.20;;;4.43;;
66095;SDS011;53861;53.422;14.530;2023-05-18T08:27:53;13.50;;;3.97;;
66095;SDS011;53861;53.422;14.530;2023-05-18T08:30:21;17.17;;;4.22;;
66095;SDS011;53861;53.422;14.530;2023-05-18T08:32:48;18.58;;;4.63;;
66095;SDS011;53861;53.422;14.530;2023-05-18T08:35:16;20.27;;;4.97;;
66095;SDS011;53861;53.422;14.530;2023-05-18T08:37:44;25.95;;;5.45;;
66095;SDS011;53861;53.422;14.530;2023-05-18T08:40:12;10.52;;;3.47;;
66095;SDS011;53861;53.422;14.530;2023-05-18T08:42:41;15.23;;;4.18;;
66095;SDS011;53861;53.422;14.530;2023-05-18T08:45:14;14.18;;;4.28;;
66095;SDS011;53861;53.422;14.530;2023-05-18T08:47:48;12.10;;;4.13;;
66095;SDS011;53861;53.422;14.530;2023-05-18T08:50:16;14.88;;;2.97;;
66095;SDS011;53861;53.422;14.530;2023-05-18T08:52:48;14.07;;;3.20;;
66095;SDS011;53861;53.422;14.530;2023-05-18T08:55:20;13.13;;;3.20;;
66095;SDS011;53861;53.422;14.530;2023-05-18T08:57:49;12.23;;;2.92;;
66095;SDS011;53861;53.422;14.530;2023-05-18T09:00:20;12.27;;;3.53;;
66095;SDS011;53861;53.422;14.530;2023-05-18T09:02:48;11.60;;;3.10;;
66095;SDS011;53861;53.422;14.530;2023-05-18T09:05:16;14.15;;;4.55;;
66095;SDS011;53861;53.422;14.530;2023-05-18T09:07:44;13.45;;;3.10;;
66095;SDS011;53861;53.422;14.530;2023-05-18T09:10:14;15.43;;;4.35;;
66095;SDS011;53861;53.422;14.530;2023-05-18T09:12:41;13.60;;;4.75;;
66095;SDS011;53861;53.422;14.530;2023-05-18T09:15:11;15.68;;;5.53;;
66095;SDS011;53861;53.422;14.530;2023-05-18T09:17:39;15.57;;;5.65;;
66095;SDS011;53861;53.422;14.530;2023-05-18T09:20:07;15.13;;;5.95;;
66095;SDS011;53861;53.422;14.530;2023-05-18T09:22:35;21.83;;;7.07;;
66095;SDS011;53861;53.422;14.530;2023-05-18T09:25:05;16.90;;;5.60;;
66095;SDS011;53861;53.422;14.530;2023-05-18T09:27:36;20.58;;;6.55;;
66095;SDS011;53861;53.422;14.530;2023-05-18T09:30:04;18.77;;;6.13;;
66095;SDS011;53861;53.422;14.530;2023-05-18T09:32:36;23.10;;;6.88;;
66095;SDS011;53861;53.422;14.530;2023-05-18T09:35:04;26.65;;;11.98;;
66095;SDS011;53861;53.422;14.530;2023-05-18T09:37:32;21.92;;;6.13;;
66095;SDS011;53861;53.422;14.530;2023-05-18T09:40:01;15.63;;;5.47;;
66095;SDS011;53861;53.422;14.530;2023-05-18T09:42:38;19.55;;;5.68;;
66095;SDS011;53861;53.422;14.530;2023-05-18T09:45:14;13.75;;;4.78;;
66095;SDS011;53861;53.422;14.530;2023-05-18T09:47:42;18.98;;;5.10;;
66095;SDS011;53861;53.422;14.530;2023-05-18T09:50:09;13.38;;;4.82;;
66095;SDS011;53861;53.422;14.530;2023-05-18T09:52:40;12.88;;;3.20;;
66095;SDS011;53861;53.422;14.530;2023-05-18T09:55:08;9.82;;;3.50;;
66095;SDS011;53861;53.422;14.530;2023-05-18T09:57:41;13.85;;;4.18;;
66095;SDS011;53861;53.422;14.530;2023-05-18T10:00:09;12.82;;;4.57;;
66095;SDS011;53861;53.422;14.530;2023-05-18T10:02:38;12.18;;;4.07;;
66095;SDS011;53861;53.422;14.530;2023-05-18T10:05:06;15.38;;;4.70;;
66095;SDS011;53861;53.422;14.530;2023-05-18T10:07:44;17.48;;;5.63;;
66095;SDS011;53861;53.422;14.530;2023-05-18T10:10:14;14.75;;;5.18;;
66095;SDS011;53861;53.422;14.530;2023-05-18T10:12:45;16.15;;;6.60;;
66095;SDS011;53861;53.422;14.530;2023-05-18T10:15:13;14.35;;;5.30;;
66095;SDS011;53861;53.422;14.530;2023-05-18T10:17:41;19.70;;;6.53;;
66095;SDS011;53861;53.422;14.530;2023-05-18T10:20:09;14.75;;;4.70;;
66095;SDS011;53861;53.422;14.530;2023-05-18T10:22:37;16.42;;;5.38;;
66095;SDS011;53861;53.422;14.530;2023-05-18T10:25:05;13.52;;;3.10;;
66095;SDS011;53861;53.422;14.530;2023-05-18T10:27:37;11.77;;;3.40;;
66095;SDS011;53861;53.422;14.530;2023-05-18T10:30:08;8.55;;;2.72;;
66095;SDS011;53861;53.422;14.530;2023-05-18T10:32:36;8.80;;;2.67;;
66095;SDS011;53861;53.422;14.530;2023-05-18T10:35:05;10.07;;;2.58;;
66095;SDS011;53861;53.422;14.530;2023-05-18T10:37:34;11.85;;;3.60;;
66095;SDS011;53861;53.422;14.530;2023-05-18T10:40:04;10.70;;;2.75;;
66095;SDS011;53861;53.422;14.530;2023-05-18T10:42:33;13.15;;;3.22;;
66095;SDS011;53861;53.422;14.530;2023-05-18T10:45:01;16.38;;;4.18;;
66095;SDS011;53861;53.422;14.530;2023-05-18T10:47:31;15.30;;;3.72;;
66095;SDS011;53861;53.422;14.530;2023-05-18T10:50:00;11.48;;;3.67;;
66095;SDS011;53861;53.422;14.530;2023-05-18T10:52:31;9.50;;;3.35;;
66095;SDS011;53861;53.422;14.530;2023-05-18T10:54:59;26.08;;;7.43;;
66095;SDS011;53861;53.422;14.530;2023-05-18T10:57:28;10.13;;;2.70;;
66095;SDS011;53861;53.422;14.530;2023-05-18T10:59:59;9.75;;;2.17;;
66095;SDS011;53861;53.422;14.530;2023-05-18T11:02:26;9.63;;;2.30;;
66095;SDS011;53861;53.422;14.530;2023-05-18T11:04:56;10.30;;;2.38;;
66095;SDS011;53861;53.422;14.530;2023-05-18T11:07:23;8.70;;;2.30;;
66095;SDS011;53861;53.422;14.530;2023-05-18T11:09:54;10.73;;;2.45;;
66095;SDS011;53861;53.422;14.530;2023-05-18T11:12:21;10.07;;;2.10;;
66095;SDS011;53861;53.422;14.530;2023-05-18T11:14:50;17.20;;;3.58;;
66095;SDS011;53861;53.422;14.530;2023-05-18T11:17:19;16.83;;;3.25;;
66095;SDS011;53861;53.422;14.530;2023-05-18T11:20:11;13.90;;;4.55;;
66095;SDS011;53861;53.422;14.530;2023-05-18T11:22:41;10.32;;;2.67;;
66095;SDS011;53861;53.422;14.530;2023-05-18T11:28:03;9.65;;;2.53;;
66095;SDS011;53861;53.422;14.530;2023-05-18T11:30:48;12.18;;;2.67;;
66095;SDS011;53861;53.422;14.530;2023-05-18T11:33:21;11.93;;;2.30;;
66095;SDS011;53861;53.422;14.530;2023-05-18T11:35:54;12.15;;;2.65;;
66095;SDS011;53861;53.422;14.530;2023-05-18T11:41:26;11.85;;;2.50;;
66095;SDS011;53861;53.422;14.530;2023-05-18T11:46:53;8.98;;;2.50;;
66095;SDS011;53861;53.422;14.530;2023-05-18T11:49:25;14.20;;;3.08;;
66095;SDS011;53861;53.422;14.530;2023-05-18T11:51:55;12.13;;;3.05;;
66095;SDS011;53861;53.422;14.530;2023-05-18T11:54:26;13.25;;;3.00;;
66095;SDS011;53861;53.422;14.530;2023-05-18T11:56:54;13.60;;;2.35;;
66095;SDS011;53861;53.422;14.530;2023-05-18T11:59:31;10.15;;;2.30;;
66095;SDS011;53861;53.422;14.530;2023-05-18T12:02:00;11.68;;;2.90;;
66095;SDS011;53861;53.422;14.530;2023-05-18T12:04:29;11.30;;;2.00;;
66095;SDS011;53861;53.422;14.530;2023-05-18T12:06:59;9.30;;;2.10;;
66095;SDS011;53861;53.422;14.530;2023-05-18T12:09:31;9.93;;;2.33;;
66095;SDS011;53861;53.422;14.530;2023-05-18T12:11:59;11.25;;;2.13;;
66095;SDS011;53861;53.422;14.530;2023-05-18T12:14:27;17.13;;;2.70;;
66095;SDS011;53861;53.422;14.530;2023-05-18T12:16:55;8.57;;;2.10;;
66095;SDS011;53861;53.422;14.530;2023-05-18T12:19:23;8.85;;;2.40;;
66095;SDS011;53861;53.422;14.530;2023-05-18T12:21:51;14.10;;;2.45;;
66095;SDS011;53861;53.422;14.530;2023-05-18T12:24:20;8.60;;;2.00;;
66095;SDS011;53861;53.422;14.530;2023-05-18T12:26:47;12.60;;;2.60;;
66095;SDS011;53861;53.422;14.530;2023-05-18T12:29:15;12.02;;;2.20;;
66095;SDS011;53861;53.422;14.530;2023-05-18T12:31:45;11.63;;;2.50;;
66095;SDS011;53861;53.422;14.530;2023-05-18T12:34:13;14.40;;;2.95;;
66095;SDS011;53861;53.422;14.530;2023-05-18T12:36:49;12.60;;;2.40;;
66095;SDS011;53861;53.422;14.530;2023-05-18T12:39:18;16.58;;;3.17;;
66095;SDS011;53861;53.422;14.530;2023-05-18T12:41:47;11.43;;;2.03;;
66095;SDS011;53861;53.422;14.530;2023-05-18T12:44:14;14.07;;;2.30;;
66095;SDS011;53861;53.422;14.530;2023-05-18T12:46:41;13.00;;;2.67;;
66095;SDS011;53861;53.422;14.530;2023-05-18T12:49:09;10.75;;;2.50;;
66095;SDS011;53861;53.422;14.530;2023-05-18T12:51:37;16.67;;;2.45;;
66095;SDS011;53861;53.422;14.530;2023-05-18T12:54:05;15.43;;;3.00;;
66095;SDS011;53861;53.422;14.530;2023-05-18T12:56:49;22.10;;;3.45;;
66095;SDS011;53861;53.422;14.530;2023-05-18T12:59:24;11.88;;;2.83;;
66095;SDS011;53861;53.422;14.530;2023-05-18T13:01:52;15.77;;;3.35;;
66095;SDS011;53861;53.422;14.530;2023-05-18T13:04:21;13.23;;;2.50;;
66095;SDS011;53861;53.422;14.530;2023-05-18T13:06:48;14.30;;;3.20;;
66095;SDS011;53861;53.422;14.530;2023-05-18T13:09:16;19.25;;;4.82;;
66095;SDS011;53861;53.422;14.530;2023-05-18T13:11:50;16.25;;;2.78;;
66095;SDS011;53861;53.422;14.530;2023-05-18T13:16:48;13.82;;;3.28;;
66095;SDS011;53861;53.422;14.530;2023-05-18T13:19:16;15.15;;;4.13;;
66095;SDS011;53861;53.422;14.530;2023-05-18T13:21:44;14.70;;;3.83;;
66095;SDS011;53861;53.422;14.530;2023-05-18T13:24:12;13.48;;;2.70;;
66095;SDS011;53861;53.422;14.530;2023-05-18T13:26:40;13.85;;;3.22;;
66095;SDS011;53861;53.422;14.530;2023-05-18T13:29:08;11.75;;;2.40;;
66095;SDS011;53861;53.422;14.530;2023-05-18T13:31:35;13.65;;;2.50;;
66095;SDS011;53861;53.422;14.530;2023-05-18T13:34:03;11.60;;;3.08;;
66095;SDS011;53861;53.422;14.530;2023-05-18T13:36:30;11.73;;;2.75;;
66095;SDS011;53861;53.422;14.530;2023-05-18T13:39:00;20.08;;;2.78;;
66095;SDS011;53861;53.422;14.530;2023-05-18T13:41:30;12.90;;;2.50;;
66095;SDS011;53861;53.422;14.530;2023-05-18T13:43:57;15.57;;;2.55;;
66095;SDS011;53861;53.422;14.530;2023-05-18T13:46:26;10.80;;;2.53;;
66095;SDS011;53861;53.422;14.530;2023-05-18T13:48:53;16.85;;;2.67;;
66095;SDS011;53861;53.422;14.530;2023-05-18T13:51:22;21.95;;;3.25;;
66095;SDS011;53861;53.422;14.530;2023-05-18T13:53:49;18.58;;;3.40;;
66095;SDS011;53861;53.422;14.530;2023-05-18T13:56:16;16.10;;;3.40;;
66095;SDS011;53861;53.422;14.530;2023-05-18T13:58:44;17.38;;;3.53;;
66095;SDS011;53861;53.422;14.530;2023-05-18T14:01:12;19.15;;;3.83;;
66095;SDS011;53861;53.422;14.530;2023-05-18T14:03:43;19.05;;;4.00;;
66095;SDS011;53861;53.422;14.530;2023-05-18T14:06:10;13.57;;;2.58;;
66095;SDS011;53861;53.422;14.530;2023-05-18T14:08:38;13.60;;;2.80;;
66095;SDS011;53861;53.422;14.530;2023-05-18T14:11:05;16.00;;;3.60;;
66095;SDS011;53861;53.422;14.530;2023-05-18T14:13:32;21.02;;;4.63;;
66095;SDS011;53861;53.422;14.530;2023-05-18T14:15:59;23.67;;;3.08;;
66095;SDS011;53861;53.422;14.530;2023-05-18T14:18:27;17.60;;;3.03;;
66095;SDS011;53861;53.422;14.530;2023-05-18T14:20:55;13.68;;;2.95;;
66095;SDS011;53861;53.422;14.530;2023-05-18T14:23:26;18.70;;;2.88;;
66095;SDS011;53861;53.422;14.530;2023-05-18T14:25:54;16.55;;;2.80;;
66095;SDS011;53861;53.422;14.530;2023-05-18T14:28:21;12.75;;;2.65;;
66095;SDS011;53861;53.422;14.530;2023-05-18T14:30:48;17.58;;;3.83;;
66095;SDS011;53861;53.422;14.530;2023-05-18T14:33:16;13.10;;;2.95;;
66095;SDS011;53861;53.422;14.530;2023-05-18T14:35:43;20.83;;;3.40;;
66095;SDS011;53861;53.422;14.530;2023-05-18T14:38:11;19.90;;;3.78;;
66095;SDS011;53861;53.422;14.530;2023-05-18T14:40:39;14.07;;;3.38;;
66095;SDS011;53861;53.422;14.530;2023-05-18T14:43:08;16.83;;;3.50;;
66095;SDS011;53861;53.422;14.530;2023-05-18T14:45:35;20.63;;;4.20;;
66095;SDS011;53861;53.422;14.530;2023-05-18T14:48:03;24.88;;;5.45;;
66095;SDS011;53861;53.422;14.530;2023-05-18T14:50:30;21.73;;;4.40;;
66095;SDS011;53861;53.422;14.530;2023-05-18T14:52:57;14.40;;;3.63;;
66095;SDS011;53861;53.422;14.530;2023-05-18T14:55:26;15.90;;;3.60;;
66095;SDS011;53861;53.422;14.530;2023-05-18T14:57:53;14.10;;;4.03;;